createdAt,value
2022-12-20T00:01:56.066Z,2.80
2022-12-20T00:04:24.292Z,2.90
2022-12-20T00:06:52.548Z,2.90
2022-12-20T00:09:20.937Z,3.00
2022-12-20T00:11:49.070Z,2.90
2022-12-20T00:14:19.590Z,3.00
2022-12-20T00:16:47.800Z,3.00
2022-12-20T00:19:16.237Z,3.00
2022-12-20T00:21:44.415Z,3.00
2022-12-20T00:24:12.877Z,3.00
2022-12-20T00:26:41.123Z,2.90
2022-12-20T00:29:09.390Z,3.00
2022-12-20T00:31:39.827Z,3.00
2022-12-20T00:34:08.123Z,3.00
2022-12-20T00:36:36.571Z,2.90
2022-12-20T00:39:05.061Z,3.00
2022-12-20T00:41:35.535Z,2.90
2022-12-20T00:44:05.016Z,3.00
2022-12-20T00:46:34.263Z,3.00
2022-12-20T00:49:04.467Z,3.00
2022-12-20T00:51:33.741Z,3.10
2022-12-20T00:54:02.169Z,3.00
2022-12-20T00:56:30.390Z,3.00
2022-12-20T00:59:00.501Z,3.00
2022-12-20T01:01:32.315Z,3.10
2022-12-20T01:04:01.032Z,3.20
2022-12-20T01:06:32.219Z,3.20
2022-12-20T01:09:01.550Z,3.10
2022-12-20T01:11:32.578Z,3.20
2022-12-20T01:14:04.096Z,3.20
2022-12-20T01:16:36.445Z,3.10
2022-12-20T01:19:05.433Z,3.10
2022-12-20T01:21:35.868Z,3.20
2022-12-20T01:24:04.272Z,3.30
2022-12-20T01:26:32.480Z,3.30
2022-12-20T01:29:01.727Z,3.40
2022-12-20T01:31:31.254Z,3.30
2022-12-20T01:34:01.691Z,3.30
2022-12-20T01:36:32.822Z,3.30
2022-12-20T01:39:06.219Z,3.40
2022-12-20T01:41:36.716Z,3.30
2022-12-20T01:44:07.976Z,3.30
2022-12-20T01:46:37.237Z,3.40
2022-12-20T01:49:12.901Z,3.40
2022-12-20T01:51:45.869Z,3.40
2022-12-20T01:54:20.373Z,3.40
2022-12-20T01:56:54.230Z,3.30
2022-12-20T01:59:22.635Z,3.40
2022-12-20T02:01:50.835Z,3.40
2022-12-20T02:04:19.184Z,3.40
2022-12-20T02:06:47.373Z,3.50
2022-12-20T02:09:17.677Z,3.50
2022-12-20T02:12:09.731Z,3.50
2022-12-20T02:15:00.597Z,3.40
2022-12-20T02:17:46.479Z,3.40
2022-12-20T02:20:50.267Z,3.50
2022-12-20T02:23:54.558Z,3.40
2022-12-20T02:27:22.673Z,3.40
2022-12-20T02:30:13.396Z,3.40
2022-12-20T02:32:52.211Z,3.40
2022-12-20T02:35:26.165Z,3.40
2022-12-20T02:37:57.478Z,3.30
2022-12-20T02:40:31.011Z,3.50
2022-12-20T02:43:04.201Z,3.50
2022-12-20T02:45:37.721Z,3.50
2022-12-20T02:48:11.935Z,3.50
2022-12-20T02:50:48.668Z,3.50
2022-12-20T02:53:18.283Z,3.60
2022-12-20T02:55:54.373Z,3.50
2022-12-20T02:58:29.781Z,3.40
2022-12-20T03:01:08.114Z,3.50
2022-12-20T03:03:38.606Z,3.50
2022-12-20T03:06:07.894Z,3.40
2022-12-20T03:08:36.054Z,3.60
2022-12-20T03:11:04.364Z,3.50
2022-12-20T03:13:32.520Z,3.50
2022-12-20T03:16:02.170Z,3.60
2022-12-20T03:18:30.385Z,3.60
2022-12-20T03:20:58.762Z,3.50
2022-12-20T03:23:26.907Z,3.40
2022-12-20T03:25:55.213Z,3.40
2022-12-20T03:28:23.401Z,3.50
2022-12-20T03:30:51.601Z,3.40
2022-12-20T03:33:21.266Z,3.50
2022-12-20T03:35:49.631Z,3.40
2022-12-20T03:38:17.775Z,3.50
2022-12-20T03:40:45.971Z,3.40
2022-12-20T03:43:14.776Z,3.50
2022-12-20T03:45:42.925Z,3.50
2022-12-20T03:48:11.294Z,3.40
2022-12-20T03:50:40.880Z,3.20
2022-12-20T03:53:09.384Z,3.30
2022-12-20T03:55:37.672Z,3.30
2022-12-20T03:58:05.784Z,3.30
2022-12-20T04:00:34.628Z,3.20
2022-12-20T04:03:03.004Z,3.30
2022-12-20T04:05:31.268Z,3.10
2022-12-20T04:08:00.976Z,3.10
2022-12-20T04:10:29.159Z,3.10
2022-12-20T04:12:57.369Z,3.20
2022-12-20T04:15:25.596Z,3.20
2022-12-20T04:17:54.014Z,3.10
2022-12-20T04:20:22.200Z,3.20
2022-12-20T04:22:52.494Z,3.20
2022-12-20T04:25:23.593Z,3.10
2022-12-20T04:27:51.747Z,3.20
2022-12-20T04:30:20.060Z,3.20
2022-12-20T04:32:48.211Z,3.10
2022-12-20T04:35:16.642Z,3.10
2022-12-20T04:37:44.803Z,3.20
2022-12-20T04:40:14.488Z,3.10
2022-12-20T04:42:44.036Z,3.10
2022-12-20T04:45:12.805Z,3.00
2022-12-20T04:47:40.978Z,3.00
2022-12-20T04:50:10.073Z,3.10
2022-12-20T04:52:55.672Z,3.10
2022-12-20T04:55:24.059Z,3.20
2022-12-20T04:57:53.550Z,3.20
2022-12-20T05:00:22.283Z,3.20
2022-12-20T05:02:51.459Z,3.30
2022-12-20T05:05:20.037Z,3.40
2022-12-20T05:07:48.350Z,3.40
2022-12-20T05:10:16.774Z,3.40
2022-12-20T05:12:45.330Z,3.30
2022-12-20T05:15:15.084Z,3.30
2022-12-20T05:17:43.260Z,3.30
2022-12-20T05:20:13.492Z,3.40
2022-12-20T05:22:59.204Z,3.40
2022-12-20T05:25:44.614Z,3.40
2022-12-20T05:28:12.896Z,3.30
2022-12-20T05:30:42.414Z,3.30
2022-12-20T05:33:12.740Z,3.40
2022-12-20T05:35:41.770Z,3.40
2022-12-20T05:38:10.055Z,3.10
2022-12-20T05:40:38.483Z,3.40
2022-12-20T05:43:07.293Z,3.30
2022-12-20T05:45:36.171Z,3.40
2022-12-20T05:48:05.924Z,3.40
2022-12-20T05:50:34.137Z,3.40
2022-12-20T05:53:07.471Z,3.40
2022-12-20T05:55:40.456Z,3.40
2022-12-20T05:58:08.950Z,3.30
2022-12-20T06:00:37.336Z,3.40
2022-12-20T06:03:07.200Z,3.40
2022-12-20T06:05:35.422Z,3.30
2022-12-20T06:08:03.743Z,3.30
2022-12-20T06:10:32.284Z,3.40
2022-12-20T06:13:00.995Z,3.40
2022-12-20T06:15:30.104Z,3.40
2022-12-20T06:17:58.732Z,3.30
2022-12-20T06:20:28.520Z,3.40
2022-12-20T06:22:56.823Z,3.30
2022-12-20T06:25:25.040Z,3.40
2022-12-20T06:27:53.434Z,3.50
2022-12-20T06:30:27.570Z,3.40
2022-12-20T06:32:58.528Z,3.50
2022-12-20T06:35:28.109Z,3.60
2022-12-20T06:37:56.441Z,3.60
2022-12-20T06:40:25.409Z,3.60
2022-12-20T06:42:54.409Z,3.60
2022-12-20T06:45:22.666Z,3.60
2022-12-20T06:47:50.808Z,3.60
2022-12-20T06:50:19.250Z,3.50
2022-12-20T06:52:48.787Z,3.60
2022-12-20T06:55:17.159Z,3.50
2022-12-20T06:57:45.312Z,3.60
2022-12-20T07:00:15.572Z,3.50
2022-12-20T07:02:43.983Z,3.70
2022-12-20T07:05:12.362Z,3.70
2022-12-20T07:07:45.136Z,3.80
2022-12-20T07:10:15.419Z,3.90
2022-12-20T07:12:47.895Z,3.80
2022-12-20T07:15:16.820Z,3.70
2022-12-20T07:17:45.619Z,3.90
2022-12-20T07:20:14.740Z,4.00
2022-12-20T07:22:43.648Z,3.90
2022-12-20T07:25:12.096Z,3.90
2022-12-20T07:27:41.820Z,3.90
2022-12-20T07:30:11.143Z,3.90
2022-12-20T07:32:39.351Z,4.00
2022-12-20T07:35:08.965Z,4.10
2022-12-20T07:37:37.336Z,4.10
2022-12-20T07:40:07.583Z,4.20
2022-12-20T07:42:38.191Z,4.20
2022-12-20T07:45:10.820Z,4.20
2022-12-20T07:47:38.941Z,4.20
2022-12-20T07:50:09.579Z,4.40
2022-12-20T07:52:40.076Z,4.30
2022-12-20T07:55:10.844Z,4.40
2022-12-20T07:57:47.169Z,4.40
2022-12-20T08:00:18.879Z,4.40
2022-12-20T08:02:53.963Z,4.40
2022-12-20T08:05:24.345Z,4.50
2022-12-20T08:07:59.223Z,4.50
2022-12-20T08:10:28.837Z,4.60
2022-12-20T08:12:58.638Z,4.60
2022-12-20T08:15:30.405Z,4.70
2022-12-20T08:17:58.683Z,4.80
2022-12-20T08:20:26.935Z,4.70
2022-12-20T08:22:55.340Z,4.80
2022-12-20T08:25:23.619Z,4.70
2022-12-20T08:27:52.458Z,4.80
2022-12-20T08:30:20.793Z,4.90
2022-12-20T08:32:50.380Z,4.90
2022-12-20T08:35:18.767Z,4.90
2022-12-20T08:37:46.945Z,5.10
2022-12-20T08:40:16.143Z,5.20
2022-12-20T08:42:44.283Z,5.20
2022-12-20T08:45:13.566Z,5.40
2022-12-20T08:47:41.798Z,5.40
2022-12-20T08:50:13.686Z,5.50
2022-12-20T08:52:41.844Z,5.60
2022-12-20T08:55:13.021Z,5.50
2022-12-20T08:57:41.453Z,5.50
2022-12-20T09:00:12.317Z,5.40
2022-12-20T09:02:41.276Z,5.50
2022-12-20T09:05:11.596Z,5.50
2022-12-20T09:07:39.747Z,5.50
2022-12-20T09:10:10.328Z,5.50
2022-12-20T09:12:39.533Z,5.50
2022-12-20T09:15:09.466Z,5.50
2022-12-20T09:17:37.661Z,5.40
2022-12-20T09:20:08.415Z,5.40
2022-12-20T09:22:37.946Z,5.50
2022-12-20T09:25:08.131Z,5.50
2022-12-20T09:27:36.291Z,5.30
2022-12-20T09:30:04.979Z,5.50
2022-12-20T09:32:33.250Z,5.60
2022-12-20T09:35:01.476Z,5.40
2022-12-20T09:37:32.189Z,5.40
2022-12-20T09:40:01.918Z,5.50
2022-12-20T09:42:32.443Z,5.50
2022-12-20T09:45:09.175Z,5.50
2022-12-20T09:47:39.180Z,5.50
2022-12-20T09:50:15.671Z,5.50
2022-12-20T09:53:07.028Z,5.50
2022-12-20T09:55:44.809Z,5.50
2022-12-20T09:58:46.166Z,5.60
2022-12-20T10:01:25.010Z,5.60
2022-12-20T10:03:55.928Z,5.60
2022-12-20T10:06:42.023Z,5.60
2022-12-20T10:09:31.304Z,5.60
2022-12-20T10:12:17.936Z,5.40
2022-12-20T10:15:05.488Z,5.50
2022-12-20T10:17:56.594Z,5.50
2022-12-20T10:20:42.329Z,5.40
2022-12-20T10:23:26.671Z,5.50
2022-12-20T10:26:00.936Z,5.40
2022-12-20T10:28:36.846Z,5.30
2022-12-20T10:31:08.237Z,5.30
2022-12-20T10:33:36.491Z,5.30
2022-12-20T10:36:24.600Z,5.30
2022-12-20T10:38:55.197Z,5.30
2022-12-20T10:41:27.709Z,5.40
2022-12-20T10:44:02.812Z,5.30
2022-12-20T10:46:41.286Z,5.30
2022-12-20T10:49:32.379Z,5.30
2022-12-20T10:52:04.642Z,5.20
2022-12-20T10:54:39.165Z,5.30
2022-12-20T10:57:21.118Z,5.30
2022-12-20T10:59:55.005Z,5.40
2022-12-20T11:02:37.027Z,5.50
2022-12-20T11:05:25.682Z,5.60
2022-12-20T11:10:46.973Z,6.00
2022-12-20T11:13:25.729Z,6.20
2022-12-20T11:16:01.499Z,6.40
2022-12-20T11:18:45.962Z,6.50
2022-12-20T11:21:30.729Z,6.80
2022-12-20T11:24:11.843Z,6.90
2022-12-20T11:27:01.657Z,6.90
2022-12-20T11:29:48.203Z,6.90
2022-12-20T11:32:34.136Z,7.00
2022-12-20T11:35:13.743Z,7.10
2022-12-20T11:37:57.106Z,7.20
2022-12-20T11:40:34.255Z,7.20
2022-12-20T11:43:23.498Z,7.10
2022-12-20T11:46:20.920Z,7.20
2022-12-20T11:49:29.061Z,7.30
2022-12-20T11:52:07.221Z,7.20
2022-12-20T11:54:45.658Z,7.20
2022-12-20T11:57:22.756Z,7.30
2022-12-20T11:59:58.825Z,7.40
2022-12-20T12:02:36.971Z,7.50
2022-12-20T12:05:17.876Z,7.50
2022-12-20T12:07:56.001Z,7.60
2022-12-20T12:10:32.089Z,7.60
2022-12-20T12:13:13.435Z,7.00
2022-12-20T12:15:54.024Z,7.80
2022-12-20T12:18:26.178Z,8.00
2022-12-20T12:21:09.842Z,8.00
2022-12-20T12:23:52.258Z,8.10
2022-12-20T12:26:25.288Z,8.10
2022-12-20T12:28:58.989Z,8.20
2022-12-20T12:31:38.249Z,8.20
2022-12-20T12:34:21.867Z,8.30
2022-12-20T12:37:19.465Z,8.20
2022-12-20T12:40:25.219Z,7.90
2022-12-20T12:43:34.556Z,7.80
2022-12-20T12:46:14.160Z,7.60
2022-12-20T12:48:49.888Z,7.50
2022-12-20T12:51:29.374Z,7.50
2022-12-20T12:54:19.386Z,7.30
2022-12-20T12:56:50.659Z,7.30
2022-12-20T12:59:51.757Z,7.20
2022-12-20T13:02:52.536Z,7.20
2022-12-20T13:05:37.416Z,7.10
2022-12-20T13:08:17.924Z,7.20
2022-12-20T13:11:29.576Z,7.20
2022-12-20T13:14:33.635Z,7.20
2022-12-20T13:17:47.478Z,7.10
2022-12-20T13:20:22.499Z,7.00
2022-12-20T13:23:17.839Z,7.10
2022-12-20T13:25:48.954Z,7.00
2022-12-20T13:28:47.459Z,7.00
2022-12-20T13:31:34.929Z,6.90
2022-12-20T13:34:04.058Z,6.90
2022-12-20T13:36:39.206Z,6.90
2022-12-20T13:39:37.014Z,6.70
2022-12-20T13:42:27.680Z,6.60
2022-12-20T13:44:57.974Z,6.70
2022-12-20T13:47:51.511Z,6.60
2022-12-20T13:50:50.862Z,6.70
2022-12-20T13:53:22.743Z,6.50
2022-12-20T13:55:51.520Z,6.50
2022-12-20T13:58:22.929Z,6.50
2022-12-20T14:00:54.761Z,6.40
2022-12-20T14:03:26.660Z,6.30
2022-12-20T14:06:00.622Z,6.20
2022-12-20T14:08:34.029Z,6.30
2022-12-20T14:11:14.678Z,6.20
2022-12-20T14:13:43.715Z,6.20
2022-12-20T14:16:19.194Z,5.90
2022-12-20T14:18:50.603Z,5.90
2022-12-20T14:21:20.147Z,5.90
2022-12-20T14:23:52.763Z,5.80
2022-12-20T14:26:26.808Z,5.80
2022-12-20T14:28:58.393Z,5.80
2022-12-20T14:31:36.032Z,5.70
2022-12-20T14:34:07.901Z,5.80
2022-12-20T14:36:36.155Z,5.80
2022-12-20T14:39:26.098Z,5.70
2022-12-20T14:41:59.449Z,5.70
2022-12-20T14:44:31.248Z,5.60
2022-12-20T14:47:05.309Z,5.60
2022-12-20T14:49:36.752Z,5.60
2022-12-20T14:52:15.906Z,5.50
2022-12-20T14:57:45.963Z,5.50
2022-12-20T15:00:23.374Z,5.60
2022-12-20T15:03:03.830Z,5.50
2022-12-20T15:05:50.783Z,5.50
2022-12-20T15:08:23.180Z,5.50
2022-12-20T15:10:59.897Z,5.60
2022-12-20T15:13:33.689Z,5.50
2022-12-20T15:16:04.499Z,5.50
2022-12-20T15:18:34.562Z,5.50
2022-12-20T15:21:07.784Z,5.50
2022-12-20T15:23:36.199Z,5.50
2022-12-20T15:26:04.516Z,5.40
2022-12-20T15:28:33.674Z,5.50
2022-12-20T15:31:05.031Z,5.50
2022-12-20T15:33:36.651Z,5.40
2022-12-20T15:36:05.061Z,5.40
2022-12-20T15:41:25.658Z,5.40
2022-12-20T15:43:58.359Z,5.40
2022-12-20T15:46:27.163Z,5.40
2022-12-20T15:48:57.083Z,5.30
2022-12-20T15:51:31.790Z,5.30
2022-12-20T15:54:00.917Z,5.20
2022-12-20T15:56:30.024Z,5.20
2022-12-20T15:58:58.538Z,5.30
2022-12-20T16:01:40.294Z,5.00
2022-12-20T16:04:16.858Z,5.40
2022-12-20T16:06:46.465Z,5.30
2022-12-20T16:09:17.425Z,5.20
2022-12-20T16:11:45.918Z,5.30
2022-12-20T16:14:18.899Z,5.30
2022-12-20T16:16:48.590Z,5.20
2022-12-20T16:19:19.313Z,5.20
2022-12-20T16:21:51.166Z,5.30
2022-12-20T16:24:21.828Z,5.20
2022-12-20T16:26:51.515Z,5.20
2022-12-20T16:29:19.726Z,5.30
2022-12-20T16:31:47.964Z,5.30
2022-12-20T16:34:19.377Z,5.30
2022-12-20T16:36:48.386Z,5.20
2022-12-20T16:39:16.642Z,5.30
2022-12-20T16:41:44.903Z,5.20
2022-12-20T16:44:16.562Z,5.20
2022-12-20T16:46:45.609Z,5.30
2022-12-20T16:49:20.060Z,5.30
2022-12-20T16:51:50.930Z,5.30
2022-12-20T16:54:22.320Z,5.30
2022-12-20T16:56:55.455Z,5.20
2022-12-20T16:59:25.104Z,5.30
2022-12-20T17:01:56.722Z,5.30
2022-12-20T17:04:27.717Z,5.20
2022-12-20T17:06:57.233Z,5.10
2022-12-20T17:09:25.736Z,5.20
2022-12-20T17:11:53.997Z,5.20
2022-12-20T17:14:22.666Z,5.20
2022-12-20T17:16:51.016Z,5.20
2022-12-20T17:19:19.386Z,5.10
2022-12-20T17:24:37.188Z,5.20
2022-12-20T17:27:06.204Z,5.20
2022-12-20T17:29:34.978Z,5.20
2022-12-20T17:32:03.897Z,5.20
2022-12-20T17:34:32.638Z,5.20
2022-12-20T17:37:00.787Z,5.20
2022-12-20T17:39:29.122Z,5.20
2022-12-20T17:41:58.650Z,5.20
2022-12-20T17:44:29.187Z,5.20
2022-12-20T17:46:58.926Z,5.20
2022-12-20T17:49:27.143Z,5.30
2022-12-20T17:51:56.141Z,5.20
2022-12-20T17:54:26.676Z,5.20
2022-12-20T17:56:56.404Z,5.20
2022-12-20T17:59:27.103Z,5.20
2022-12-20T18:01:55.529Z,5.20
2022-12-20T18:04:24.638Z,5.30
2022-12-20T18:06:52.950Z,5.30
2022-12-20T18:09:23.014Z,5.20
2022-12-20T18:11:51.213Z,5.30
2022-12-20T18:14:19.382Z,5.30
2022-12-20T18:16:48.961Z,5.30
2022-12-20T18:19:20.817Z,5.20
2022-12-20T18:21:49.048Z,5.30
2022-12-20T18:24:18.281Z,5.20
2022-12-20T18:26:46.526Z,5.20
2022-12-20T18:29:14.779Z,5.30
2022-12-20T18:31:43.000Z,5.30
2022-12-20T18:34:12.607Z,5.30
2022-12-20T18:36:40.816Z,5.20
2022-12-20T18:39:13.290Z,5.10
2022-12-20T18:41:42.920Z,5.30
2022-12-20T18:44:12.679Z,5.30
2022-12-20T18:46:41.789Z,5.30
2022-12-20T18:49:12.071Z,5.30
2022-12-20T18:51:40.324Z,5.20
2022-12-20T18:54:10.873Z,5.30
2022-12-20T18:56:40.613Z,5.40
2022-12-20T18:59:12.492Z,5.40
2022-12-20T19:01:43.497Z,5.30
2022-12-20T19:04:15.929Z,5.30
2022-12-20T19:06:46.327Z,5.40
2022-12-20T19:09:15.260Z,5.30
2022-12-20T19:11:44.125Z,5.30
2022-12-20T19:14:14.311Z,5.30
2022-12-20T19:16:42.744Z,5.30
2022-12-20T19:19:12.630Z,5.30
2022-12-20T19:21:42.963Z,5.30
2022-12-20T19:24:12.875Z,5.20
2022-12-20T19:26:41.729Z,5.30
2022-12-20T19:29:11.558Z,5.40
2022-12-20T19:31:40.021Z,5.30
2022-12-20T19:34:12.003Z,5.20
2022-12-20T19:36:44.216Z,5.20
2022-12-20T19:39:17.576Z,5.30
2022-12-20T19:42:05.924Z,5.30
2022-12-20T19:44:34.384Z,5.30
2022-12-20T19:47:05.698Z,5.30
2022-12-20T19:49:35.337Z,5.30
2022-12-20T19:52:06.706Z,5.30
2022-12-20T19:54:35.111Z,5.30
2022-12-20T19:57:03.343Z,5.40
2022-12-20T19:59:31.635Z,5.40
2022-12-20T20:01:59.945Z,5.30
2022-12-20T20:04:29.044Z,5.40
2022-12-20T20:06:57.376Z,5.40
2022-12-20T20:09:27.113Z,5.40
2022-12-20T20:11:55.310Z,5.40
2022-12-20T20:14:24.152Z,5.40
2022-12-20T20:16:52.910Z,5.40
2022-12-20T20:19:21.492Z,5.40
2022-12-20T20:21:49.820Z,5.40
2022-12-20T20:24:18.237Z,5.50
2022-12-20T20:26:48.691Z,5.40
2022-12-20T20:29:16.915Z,5.40
2022-12-20T20:31:45.147Z,5.30
2022-12-20T20:34:13.398Z,5.40
2022-12-20T20:36:41.688Z,5.30
2022-12-20T20:39:09.940Z,5.20
2022-12-20T20:41:38.112Z,5.20
2022-12-20T20:44:07.738Z,5.30
2022-12-20T20:46:36.022Z,5.20
2022-12-20T20:49:06.974Z,5.20
2022-12-20T20:51:35.194Z,5.30
2022-12-20T20:54:03.488Z,5.20
2022-12-20T20:56:31.668Z,5.20
2022-12-20T20:59:05.870Z,5.10
2022-12-20T21:01:37.969Z,5.20
2022-12-20T21:04:07.145Z,5.30
2022-12-20T21:06:41.032Z,5.30
2022-12-20T21:09:10.207Z,5.40
2022-12-20T21:11:38.526Z,5.30
2022-12-20T21:14:06.821Z,5.20
2022-12-20T21:16:35.134Z,5.10
2022-12-20T21:19:05.547Z,5.20
2022-12-20T21:21:33.868Z,5.20
2022-12-20T21:24:02.129Z,5.30
2022-12-20T21:26:30.284Z,5.20
2022-12-20T21:28:59.343Z,5.10
2022-12-20T21:31:28.177Z,5.20
2022-12-20T21:33:57.181Z,5.20
2022-12-20T21:36:27.155Z,5.20
2022-12-20T21:38:58.175Z,5.20
2022-12-20T21:41:28.533Z,5.10
2022-12-20T21:43:58.173Z,5.10
2022-12-20T21:46:28.969Z,5.10
2022-12-20T21:48:58.565Z,5.20
2022-12-20T21:51:30.428Z,5.10
2022-12-20T21:54:01.164Z,5.10
2022-12-20T21:56:32.068Z,5.20
2022-12-20T21:59:02.283Z,5.20
2022-12-20T22:01:31.288Z,5.10
2022-12-20T22:04:02.523Z,5.00
2022-12-20T22:06:33.158Z,5.20
2022-12-20T22:09:06.170Z,5.20
2022-12-20T22:11:36.172Z,5.10
2022-12-20T22:14:04.587Z,5.10
2022-12-20T22:16:34.884Z,5.10
2022-12-20T22:19:03.778Z,5.00
2022-12-20T22:21:35.058Z,5.00
2022-12-20T22:24:03.932Z,5.00
2022-12-20T22:26:34.208Z,5.00
2022-12-20T22:29:06.152Z,5.00
2022-12-20T22:31:35.938Z,5.00
2022-12-20T22:34:04.833Z,5.00
2022-12-20T22:36:34.385Z,5.00
2022-12-20T22:39:02.583Z,5.00
2022-12-20T22:41:34.531Z,5.00
2022-12-20T22:44:03.512Z,5.00
2022-12-20T22:46:32.295Z,5.00
2022-12-20T22:49:01.497Z,4.90
2022-12-20T22:51:31.795Z,4.90
2022-12-20T22:54:01.888Z,4.80
2022-12-20T22:56:30.375Z,4.90
2022-12-20T22:58:58.840Z,5.00
2022-12-20T23:01:28.173Z,4.90
2022-12-20T23:03:56.841Z,4.80
2022-12-20T23:06:25.309Z,4.80
2022-12-20T23:08:53.766Z,4.80
2022-12-20T23:11:44.192Z,4.80
2022-12-20T23:14:31.984Z,4.80
2022-12-20T23:17:00.782Z,4.70
2022-12-20T23:19:50.297Z,4.80
2022-12-20T23:22:35.868Z,4.70
2022-12-20T23:25:04.292Z,4.70
2022-12-20T23:27:35.163Z,4.70
2022-12-20T23:30:04.261Z,4.60
2022-12-20T23:32:32.581Z,4.70
2022-12-20T23:35:03.334Z,4.70
2022-12-20T23:37:34.555Z,4.60
2022-12-20T23:40:02.770Z,4.50
2022-12-20T23:42:32.863Z,4.50
2022-12-20T23:45:01.162Z,4.60
2022-12-20T23:47:29.397Z,4.60
2022-12-20T23:49:57.587Z,4.70
2022-12-20T23:52:25.734Z,4.60
2022-12-20T23:54:53.970Z,4.60
2022-12-20T23:57:22.235Z,4.60
2022-12-20T23:59:51.927Z,4.80
